sensor_id;sensor_type;location;lat;lon;timestamp;temperature;humidity
5055;DHT22;13829;48.990;8.346;2023-03-19T00:00:31;11.40;99.90
5055;DHT22;13829;48.990;8.346;2023-03-19T00:02:58;11.40;99.90
5055;DHT22;13829;48.990;8.346;2023-03-19T00:05:25;11.40;99.90
5055;DHT22;13829;48.990;8.346;2023-03-19T00:07:52;11.50;99.90
5055;DHT22;13829;48.990;8.346;2023-03-19T00:10:19;11.40;99.90
5055;DHT22;13829;48.990;8.346;2023-03-19T00:12:47;11.40;99.90
5055;DHT22;13829;48.990;8.346;2023-03-19T00:15:14;11.40;99.90
5055;DHT22;13829;48.990;8.346;2023-03-19T00:17:41;11.30;99.90
5055;DHT22;13829;48.990;8.346;2023-03-19T00:20:10;11.30;99.90
5055;DHT22;13829;48.990;8.346;2023-03-19T00:25:11;11.30;99.90
5055;DHT22;13829;48.990;8.346;2023-03-19T00:27:38;11.20;99.90
5055;DHT22;13829;48.990;8.346;2023-03-19T00:30:07;11.30;99.90
5055;DHT22;13829;48.990;8.346;2023-03-19T00:32:35;11.30;99.90
5055;DHT22;13829;48.990;8.346;2023-03-19T00:35:04;11.20;99.90
5055;DHT22;13829;48.990;8.346;2023-03-19T00:37:33;11.20;99.90
5055;DHT22;13829;48.990;8.346;2023-03-19T00:40:02;11.30;99.90
5055;DHT22;13829;48.990;8.346;2023-03-19T00:42:30;11.30;99.90
5055;DHT22;13829;48.990;8.346;2023-03-19T00:44:57;11.20;99.90
5055;DHT22;13829;48.990;8.346;2023-03-19T00:47:25;11.30;99.90
5055;DHT22;13829;48.990;8.346;2023-03-19T00:49:52;11.30;99.90
5055;DHT22;13829;48.990;8.346;2023-03-19T00:52:20;11.20;99.90
5055;DHT22;13829;48.990;8.346;2023-03-19T00:54:47;11.10;99.90
5055;DHT22;13829;48.990;8.346;2023-03-19T00:57:14;11.10;99.90
5055;DHT22;13829;48.990;8.346;2023-03-19T00:59:41;11.00;99.90
5055;DHT22;13829;48.990;8.346;2023-03-19T01:02:08;11.00;99.90
5055;DHT22;13829;48.990;8.346;2023-03-19T01:04:36;10.90;99.90
5055;DHT22;13829;48.990;8.346;2023-03-19T01:07:03;10.90;99.90
5055;DHT22;13829;48.990;8.346;2023-03-19T01:09:31;10.90;99.90
5055;DHT22;13829;48.990;8.346;2023-03-19T01:11:58;10.80;99.90
5055;DHT22;13829;48.990;8.346;2023-03-19T01:14:28;10.80;99.90
5055;DHT22;13829;48.990;8.346;2023-03-19T01:16:55;10.80;99.90
5055;DHT22;13829;48.990;8.346;2023-03-19T01:19:22;10.80;99.90
5055;DHT22;13829;48.990;8.346;2023-03-19T01:21:51;10.80;99.90
5055;DHT22;13829;48.990;8.346;2023-03-19T01:24:18;10.80;99.90
5055;DHT22;13829;48.990;8.346;2023-03-19T01:26:45;10.80;99.90
5055;DHT22;13829;48.990;8.346;2023-03-19T01:29:11;10.80;99.90
5055;DHT22;13829;48.990;8.346;2023-03-19T01:31:38;10.70;99.90
5055;DHT22;13829;48.990;8.346;2023-03-19T01:34:05;10.70;99.90
5055;DHT22;13829;48.990;8.346;2023-03-19T01:36:32;10.70;99.90
5055;DHT22;13829;48.990;8.346;2023-03-19T01:39:00;10.60;99.90
5055;DHT22;13829;48.990;8.346;2023-03-19T01:41:27;10.60;99.90
5055;DHT22;13829;48.990;8.346;2023-03-19T01:43:54;10.60;99.90
5055;DHT22;13829;48.990;8.346;2023-03-19T01:46:26;10.60;99.90
5055;DHT22;13829;48.990;8.346;2023-03-19T01:48:57;10.60;99.90
5055;DHT22;13829;48.990;8.346;2023-03-19T01:51:28;10.60;99.90
5055;DHT22;13829;48.990;8.346;2023-03-19T01:54:05;10.70;99.90
5055;DHT22;13829;48.990;8.346;2023-03-19T01:56:37;10.70;99.90
5055;DHT22;13829;48.990;8.346;2023-03-19T01:59:08;10.80;99.90
5055;DHT22;13829;48.990;8.346;2023-03-19T02:01:55;10.90;99.90
5055;DHT22;13829;48.990;8.346;2023-03-19T02:04:26;11.00;99.90
5055;DHT22;13829;48.990;8.346;2023-03-19T02:06:57;11.10;99.90
5055;DHT22;13829;48.990;8.346;2023-03-19T02:09:29;11.10;99.90
5055;DHT22;13829;48.990;8.346;2023-03-19T02:11:58;11.20;99.90
5055;DHT22;13829;48.990;8.346;2023-03-19T02:14:27;11.20;99.90
5055;DHT22;13829;48.990;8.346;2023-03-19T02:16:54;11.20;99.90
5055;DHT22;13829;48.990;8.346;2023-03-19T02:19:25;11.20;99.90
5055;DHT22;13829;48.990;8.346;2023-03-19T02:21:58;11.20;99.90
5055;DHT22;13829;48.990;8.346;2023-03-19T02:24:31;11.10;99.90
5055;DHT22;13829;48.990;8.346;2023-03-19T02:27:03;11.10;99.90
5055;DHT22;13829;48.990;8.346;2023-03-19T02:29:32;11.00;99.90
5055;DHT22;13829;48.990;8.346;2023-03-19T02:31:59;11.10;99.90
5055;DHT22;13829;48.990;8.346;2023-03-19T02:34:38;11.10;99.90
5055;DHT22;13829;48.990;8.346;2023-03-19T02:37:11;11.00;99.90
5055;DHT22;13829;48.990;8.346;2023-03-19T02:39:49;11.00;99.90
5055;DHT22;13829;48.990;8.346;2023-03-19T02:42:21;11.00;99.90
5055;DHT22;13829;48.990;8.346;2023-03-19T02:44:51;10.90;99.90
5055;DHT22;13829;48.990;8.346;2023-03-19T02:47:18;10.90;99.90
5055;DHT22;13829;48.990;8.346;2023-03-19T02:49:45;10.90;99.90
5055;DHT22;13829;48.990;8.346;2023-03-19T02:52:12;10.90;99.90
5055;DHT22;13829;48.990;8.346;2023-03-19T02:54:40;10.90;99.90
5055;DHT22;13829;48.990;8.346;2023-03-19T02:57:07;10.80;99.90
5055;DHT22;13829;48.990;8.346;2023-03-19T02:59:35;10.80;99.90
5055;DHT22;13829;48.990;8.346;2023-03-19T03:02:03;10.90;99.90
5055;DHT22;13829;48.990;8.346;2023-03-19T03:04:32;10.90;99.90
5055;DHT22;13829;48.990;8.346;2023-03-19T03:07:01;10.90;99.90
5055;DHT22;13829;48.990;8.346;2023-03-19T03:09:29;10.90;99.90
5055;DHT22;13829;48.990;8.346;2023-03-19T03:11:56;10.90;99.90
5055;DHT22;13829;48.990;8.346;2023-03-19T03:14:23;10.80;99.90
5055;DHT22;13829;48.990;8.346;2023-03-19T03:16:51;10.90;99.90
5055;DHT22;13829;48.990;8.346;2023-03-19T03:19:18;10.90;99.90
5055;DHT22;13829;48.990;8.346;2023-03-19T03:21:46;10.90;99.90
5055;DHT22;13829;48.990;8.346;2023-03-19T03:24:13;10.90;99.90
5055;DHT22;13829;48.990;8.346;2023-03-19T03:26:39;10.90;99.90
5055;DHT22;13829;48.990;8.346;2023-03-19T03:29:07;10.90;99.90
5055;DHT22;13829;48.990;8.346;2023-03-19T03:31:34;10.80;99.90
5055;DHT22;13829;48.990;8.346;2023-03-19T03:34:02;10.80;99.90
5055;DHT22;13829;48.990;8.346;2023-03-19T03:36:29;10.70;99.90
5055;DHT22;13829;48.990;8.346;2023-03-19T03:38:56;10.70;99.90
5055;DHT22;13829;48.990;8.346;2023-03-19T03:41:24;10.70;99.90
5055;DHT22;13829;48.990;8.346;2023-03-19T03:43:51;10.60;99.90
5055;DHT22;13829;48.990;8.346;2023-03-19T03:46:18;10.70;99.90
5055;DHT22;13829;48.990;8.346;2023-03-19T03:48:45;10.60;99.90
5055;DHT22;13829;48.990;8.346;2023-03-19T03:51:15;10.60;99.90
5055;DHT22;13829;48.990;8.346;2023-03-19T03:53:42;10.60;99.90
5055;DHT22;13829;48.990;8.346;2023-03-19T03:56:08;10.60;99.90
5055;DHT22;13829;48.990;8.346;2023-03-19T03:58:35;10.60;99.90
5055;DHT22;13829;48.990;8.346;2023-03-19T04:01:04;10.60;99.90
5055;DHT22;13829;48.990;8.346;2023-03-19T04:03:31;10.60;99.90
5055;DHT22;13829;48.990;8.346;2023-03-19T04:05:58;10.70;99.90
5055;DHT22;13829;48.990;8.346;2023-03-19T04:08:26;10.50;99.90
5055;DHT22;13829;48.990;8.346;2023-03-19T04:10:53;10.50;99.90
5055;DHT22;13829;48.990;8.346;2023-03-19T04:13:20;10.50;99.90
5055;DHT22;13829;48.990;8.346;2023-03-19T04:15:47;10.40;99.90
5055;DHT22;13829;48.990;8.346;2023-03-19T04:18:14;10.60;99.90
5055;DHT22;13829;48.990;8.346;2023-03-19T04:20:41;10.40;99.90
5055;DHT22;13829;48.990;8.346;2023-03-19T04:23:08;10.30;99.90
5055;DHT22;13829;48.990;8.346;2023-03-19T04:25:39;10.30;99.90
5055;DHT22;13829;48.990;8.346;2023-03-19T04:28:06;10.30;99.90
5055;DHT22;13829;48.990;8.346;2023-03-19T04:30:33;10.30;99.90
5055;DHT22;13829;48.990;8.346;2023-03-19T04:33:01;10.30;99.90
5055;DHT22;13829;48.990;8.346;2023-03-19T04:35:29;10.30;99.90
5055;DHT22;13829;48.990;8.346;2023-03-19T04:37:56;10.30;99.90
5055;DHT22;13829;48.990;8.346;2023-03-19T04:40:23;10.30;99.90
5055;DHT22;13829;48.990;8.346;2023-03-19T04:42:51;10.30;99.90
5055;DHT22;13829;48.990;8.346;2023-03-19T04:45:19;10.30;99.90
5055;DHT22;13829;48.990;8.346;2023-03-19T04:47:46;10.40;99.90
5055;DHT22;13829;48.990;8.346;2023-03-19T04:50:13;10.40;99.90
5055;DHT22;13829;48.990;8.346;2023-03-19T04:52:40;10.50;99.90
5055;DHT22;13829;48.990;8.346;2023-03-19T04:55:07;10.50;99.90
5055;DHT22;13829;48.990;8.346;2023-03-19T04:57:35;10.50;99.90
5055;DHT22;13829;48.990;8.346;2023-03-19T05:00:04;10.50;99.90
5055;DHT22;13829;48.990;8.346;2023-03-19T05:02:32;10.40;99.90
5055;DHT22;13829;48.990;8.346;2023-03-19T05:04:58;10.40;99.90
5055;DHT22;13829;48.990;8.346;2023-03-19T05:07:25;10.40;99.90
5055;DHT22;13829;48.990;8.346;2023-03-19T05:09:52;10.40;99.90
5055;DHT22;13829;48.990;8.346;2023-03-19T05:12:19;10.40;99.90
5055;DHT22;13829;48.990;8.346;2023-03-19T05:14:46;10.50;99.90
5055;DHT22;13829;48.990;8.346;2023-03-19T05:17:14;10.50;99.90
5055;DHT22;13829;48.990;8.346;2023-03-19T05:19:41;10.50;99.90
5055;DHT22;13829;48.990;8.346;2023-03-19T05:22:09;10.60;99.90
5055;DHT22;13829;48.990;8.346;2023-03-19T05:24:36;10.60;99.90
5055;DHT22;13829;48.990;8.346;2023-03-19T05:27:03;10.60;99.90
5055;DHT22;13829;48.990;8.346;2023-03-19T05:29:30;10.60;99.90
5055;DHT22;13829;48.990;8.346;2023-03-19T05:31:57;10.60;99.90
5055;DHT22;13829;48.990;8.346;2023-03-19T05:34:29;10.60;99.90
5055;DHT22;13829;48.990;8.346;2023-03-19T05:36:56;10.60;99.90
5055;DHT22;13829;48.990;8.346;2023-03-19T05:39:23;10.70;99.90
5055;DHT22;13829;48.990;8.346;2023-03-19T05:41:50;10.70;99.90
5055;DHT22;13829;48.990;8.346;2023-03-19T05:44:18;10.70;99.90
5055;DHT22;13829;48.990;8.346;2023-03-19T05:46:45;10.60;99.90
5055;DHT22;13829;48.990;8.346;2023-03-19T05:49:12;10.60;99.90
5055;DHT22;13829;48.990;8.346;2023-03-19T05:51:41;10.60;99.90
5055;DHT22;13829;48.990;8.346;2023-03-19T05:54:08;10.60;99.90
5055;DHT22;13829;48.990;8.346;2023-03-19T05:56:35;10.60;99.90
5055;DHT22;13829;48.990;8.346;2023-03-19T05:59:02;10.60;99.90
5055;DHT22;13829;48.990;8.346;2023-03-19T06:01:29;10.60;99.90
5055;DHT22;13829;48.990;8.346;2023-03-19T06:03:56;10.50;99.90
5055;DHT22;13829;48.990;8.346;2023-03-19T06:06:23;10.50;99.90
5055;DHT22;13829;48.990;8.346;2023-03-19T06:08:51;10.50;99.90
5055;DHT22;13829;48.990;8.346;2023-03-19T06:11:18;10.50;99.90
5055;DHT22;13829;48.990;8.346;2023-03-19T06:13:45;10.50;99.90
5055;DHT22;13829;48.990;8.346;2023-03-19T06:16:12;10.50;99.90
5055;DHT22;13829;48.990;8.346;2023-03-19T06:18:39;10.50;99.90
5055;DHT22;13829;48.990;8.346;2023-03-19T06:21:06;10.60;99.90
5055;DHT22;13829;48.990;8.346;2023-03-19T06:23:33;10.60;99.90
5055;DHT22;13829;48.990;8.346;2023-03-19T06:26:01;10.70;99.90
5055;DHT22;13829;48.990;8.346;2023-03-19T06:28:30;10.70;99.90
5055;DHT22;13829;48.990;8.346;2023-03-19T06:30:57;10.80;99.90
5055;DHT22;13829;48.990;8.346;2023-03-19T06:33:24;11.00;99.90
5055;DHT22;13829;48.990;8.346;2023-03-19T06:35:56;11.10;99.90
5055;DHT22;13829;48.990;8.346;2023-03-19T06:38:23;11.20;99.90
5055;DHT22;13829;48.990;8.346;2023-03-19T06:40:51;11.30;99.90
5055;DHT22;13829;48.990;8.346;2023-03-19T06:43:19;11.40;99.90
5055;DHT22;13829;48.990;8.346;2023-03-19T06:45:46;11.50;99.90
5055;DHT22;13829;48.990;8.346;2023-03-19T06:48:13;11.60;99.90
5055;DHT22;13829;48.990;8.346;2023-03-19T06:50:40;11.70;99.90
5055;DHT22;13829;48.990;8.346;2023-03-19T06:53:07;11.80;99.90
5055;DHT22;13829;48.990;8.346;2023-03-19T06:55:34;11.90;99.90
5055;DHT22;13829;48.990;8.346;2023-03-19T06:58:02;11.90;99.90
5055;DHT22;13829;48.990;8.346;2023-03-19T07:00:30;12.00;99.90
5055;DHT22;13829;48.990;8.346;2023-03-19T07:02:57;12.10;99.90
5055;DHT22;13829;48.990;8.346;2023-03-19T07:05:24;12.20;99.90
5055;DHT22;13829;48.990;8.346;2023-03-19T07:07:51;12.50;99.90
5055;DHT22;13829;48.990;8.346;2023-03-19T07:10:19;12.90;99.90
5055;DHT22;13829;48.990;8.346;2023-03-19T07:12:47;13.00;99.90
5055;DHT22;13829;48.990;8.346;2023-03-19T07:15:14;13.10;99.90
5055;DHT22;13829;48.990;8.346;2023-03-19T07:17:44;13.10;99.90
5055;DHT22;13829;48.990;8.346;2023-03-19T07:20:12;13.10;99.90
5055;DHT22;13829;48.990;8.346;2023-03-19T07:22:41;13.00;99.90
5055;DHT22;13829;48.990;8.346;2023-03-19T07:25:08;12.90;99.90
5055;DHT22;13829;48.990;8.346;2023-03-19T07:27:36;12.80;99.90
5055;DHT22;13829;48.990;8.346;2023-03-19T07:30:03;12.80;99.90
5055;DHT22;13829;48.990;8.346;2023-03-19T07:32:31;12.80;99.90
5055;DHT22;13829;48.990;8.346;2023-03-19T07:34:59;12.80;99.90
5055;DHT22;13829;48.990;8.346;2023-03-19T07:37:26;12.90;99.90
5055;DHT22;13829;48.990;8.346;2023-03-19T07:39:53;13.20;99.90
5055;DHT22;13829;48.990;8.346;2023-03-19T07:42:20;13.50;99.90
5055;DHT22;13829;48.990;8.346;2023-03-19T07:44:47;13.70;99.90
5055;DHT22;13829;48.990;8.346;2023-03-19T07:47:14;13.90;99.90
5055;DHT22;13829;48.990;8.346;2023-03-19T07:49:40;14.20;99.90
5055;DHT22;13829;48.990;8.346;2023-03-19T07:52:09;14.40;99.90
5055;DHT22;13829;48.990;8.346;2023-03-19T07:54:37;14.60;99.90
5055;DHT22;13829;48.990;8.346;2023-03-19T07:57:05;14.80;99.90
5055;DHT22;13829;48.990;8.346;2023-03-19T07:59:32;14.80;99.90
5055;DHT22;13829;48.990;8.346;2023-03-19T08:01:59;14.90;99.90
5055;DHT22;13829;48.990;8.346;2023-03-19T08:04:26;14.90;99.90
5055;DHT22;13829;48.990;8.346;2023-03-19T08:06:53;15.00;99.90
5055;DHT22;13829;48.990;8.346;2023-03-19T08:09:21;15.50;99.90
5055;DHT22;13829;48.990;8.346;2023-03-19T08:11:48;16.40;99.90
5055;DHT22;13829;48.990;8.346;2023-03-19T08:14:15;17.00;97.80
5055;DHT22;13829;48.990;8.346;2023-03-19T08:16:46;17.70;96.40
5055;DHT22;13829;48.990;8.346;2023-03-19T08:19:13;18.70;94.50
5055;DHT22;13829;48.990;8.346;2023-03-19T08:21:41;19.50;92.70
5055;DHT22;13829;48.990;8.346;2023-03-19T08:24:08;20.40;91.40
5055;DHT22;13829;48.990;8.346;2023-03-19T08:26:37;20.90;86.80
5055;DHT22;13829;48.990;8.346;2023-03-19T08:29:04;20.90;86.80
5055;DHT22;13829;48.990;8.346;2023-03-19T08:31:32;20.70;86.90
5055;DHT22;13829;48.990;8.346;2023-03-19T08:33:59;20.00;85.70
5055;DHT22;13829;48.990;8.346;2023-03-19T08:36:28;20.20;88.70
5055;DHT22;13829;48.990;8.346;2023-03-19T08:38:55;20.00;89.70
5055;DHT22;13829;48.990;8.346;2023-03-19T08:41:23;20.10;89.60
5055;DHT22;13829;48.990;8.346;2023-03-19T08:43:51;19.80;87.90
5055;DHT22;13829;48.990;8.346;2023-03-19T08:46:18;19.30;86.70
5055;DHT22;13829;48.990;8.346;2023-03-19T08:48:45;18.90;89.00
5055;DHT22;13829;48.990;8.346;2023-03-19T08:51:13;18.60;90.10
5055;DHT22;13829;48.990;8.346;2023-03-19T08:53:40;18.40;90.30
5055;DHT22;13829;48.990;8.346;2023-03-19T08:56:07;18.50;90.20
5055;DHT22;13829;48.990;8.346;2023-03-19T08:58:35;18.60;90.00
5055;DHT22;13829;48.990;8.346;2023-03-19T09:01:05;18.80;90.40
5055;DHT22;13829;48.990;8.346;2023-03-19T09:03:34;18.60;89.60
5055;DHT22;13829;48.990;8.346;2023-03-19T09:06:03;18.20;89.90
5055;DHT22;13829;48.990;8.346;2023-03-19T09:08:32;17.90;90.40
5055;DHT22;13829;48.990;8.346;2023-03-19T09:11:00;17.60;90.70
5055;DHT22;13829;48.990;8.346;2023-03-19T09:13:27;17.40;91.20
5055;DHT22;13829;48.990;8.346;2023-03-19T09:15:55;17.10;91.40
5055;DHT22;13829;48.990;8.346;2023-03-19T09:18:24;16.90;92.10
5055;DHT22;13829;48.990;8.346;2023-03-19T09:20:51;16.70;93.00
5055;DHT22;13829;48.990;8.346;2023-03-19T09:23:19;16.60;93.30
5055;DHT22;13829;48.990;8.346;2023-03-19T09:25:47;16.50;93.50
5055;DHT22;13829;48.990;8.346;2023-03-19T09:28:15;16.50;94.10
5055;DHT22;13829;48.990;8.346;2023-03-19T09:30:44;16.70;94.80
5055;DHT22;13829;48.990;8.346;2023-03-19T09:33:12;16.80;94.90
5055;DHT22;13829;48.990;8.346;2023-03-19T09:35:41;17.00;94.10
5055;DHT22;13829;48.990;8.346;2023-03-19T09:38:08;17.10;93.90
5055;DHT22;13829;48.990;8.346;2023-03-19T09:40:37;17.10;93.60
5055;DHT22;13829;48.990;8.346;2023-03-19T09:43:27;16.80;93.00
5055;DHT22;13829;48.990;8.346;2023-03-19T09:46:10;17.00;94.10
5055;DHT22;13829;48.990;8.346;2023-03-19T09:48:46;17.20;94.00
5055;DHT22;13829;48.990;8.346;2023-03-19T09:51:22;17.40;94.10
5055;DHT22;13829;48.990;8.346;2023-03-19T09:53:57;17.60;94.70
5055;DHT22;13829;48.990;8.346;2023-03-19T09:56:28;17.70;93.50
5055;DHT22;13829;48.990;8.346;2023-03-19T09:58:59;17.70;91.80
5055;DHT22;13829;48.990;8.346;2023-03-19T10:01:29;17.70;91.90
5055;DHT22;13829;48.990;8.346;2023-03-19T10:04:34;17.80;92.10
5055;DHT22;13829;48.990;8.346;2023-03-19T10:07:24;17.80;91.40
5055;DHT22;13829;48.990;8.346;2023-03-19T10:10:20;17.70;91.40
5055;DHT22;13829;48.990;8.346;2023-03-19T10:13:08;17.40;90.70
5055;DHT22;13829;48.990;8.346;2023-03-19T10:15:43;17.30;91.30
5055;DHT22;13829;48.990;8.346;2023-03-19T10:18:15;17.30;91.20
5055;DHT22;13829;48.990;8.346;2023-03-19T10:20:48;17.30;91.90
5055;DHT22;13829;48.990;8.346;2023-03-19T10:23:38;17.40;92.30
5055;DHT22;13829;48.990;8.346;2023-03-19T10:26:13;17.40;92.40
5055;DHT22;13829;48.990;8.346;2023-03-19T10:28:44;17.50;92.80
5055;DHT22;13829;48.990;8.346;2023-03-19T10:31:24;17.50;92.00
5055;DHT22;13829;48.990;8.346;2023-03-19T10:34:21;17.50;91.80
5055;DHT22;13829;48.990;8.346;2023-03-19T10:36:59;17.40;91.00
5055;DHT22;13829;48.990;8.346;2023-03-19T10:39:32;17.40;91.20
5055;DHT22;13829;48.990;8.346;2023-03-19T10:42:09;17.30;92.30
5055;DHT22;13829;48.990;8.346;2023-03-19T10:44:50;17.60;93.20
5055;DHT22;13829;48.990;8.346;2023-03-19T10:47:25;17.90;93.00
5055;DHT22;13829;48.990;8.346;2023-03-19T10:49:52;18.00;91.50
5055;DHT22;13829;48.990;8.346;2023-03-19T10:52:23;17.80;90.20
5055;DHT22;13829;48.990;8.346;2023-03-19T10:55:01;17.60;90.60
5055;DHT22;13829;48.990;8.346;2023-03-19T10:57:30;17.60;90.20
5055;DHT22;13829;48.990;8.346;2023-03-19T11:00:02;17.40;91.20
5055;DHT22;13829;48.990;8.346;2023-03-19T11:02:31;17.50;91.80
5055;DHT22;13829;48.990;8.346;2023-03-19T11:05:21;17.50;91.00
5055;DHT22;13829;48.990;8.346;2023-03-19T11:07:50;17.40;90.10
5055;DHT22;13829;48.990;8.346;2023-03-19T11:10:26;17.50;90.30
5055;DHT22;13829;48.990;8.346;2023-03-19T11:12:55;17.50;90.00
5055;DHT22;13829;48.990;8.346;2023-03-19T11:15:27;17.50;90.90
5055;DHT22;13829;48.990;8.346;2023-03-19T11:18:06;17.50;91.20
5055;DHT22;13829;48.990;8.346;2023-03-19T11:20:36;17.50;91.70
5055;DHT22;13829;48.990;8.346;2023-03-19T11:23:10;17.40;91.20
5055;DHT22;13829;48.990;8.346;2023-03-19T11:25:48;17.50;91.50
5055;DHT22;13829;48.990;8.346;2023-03-19T11:28:18;17.60;92.30
5055;DHT22;13829;48.990;8.346;2023-03-19T11:30:52;17.60;92.40
5055;DHT22;13829;48.990;8.346;2023-03-19T11:33:47;17.60;92.80
5055;DHT22;13829;48.990;8.346;2023-03-19T11:36:29;17.90;92.30
5055;DHT22;13829;48.990;8.346;2023-03-19T11:39:11;18.00;92.40
5055;DHT22;13829;48.990;8.346;2023-03-19T11:42:07;18.10;92.40
5055;DHT22;13829;48.990;8.346;2023-03-19T11:45:00;18.30;91.60
5055;DHT22;13829;48.990;8.346;2023-03-19T11:47:39;18.30;91.80
5055;DHT22;13829;48.990;8.346;2023-03-19T11:50:22;18.20;91.60
5055;DHT22;13829;48.990;8.346;2023-03-19T11:53:03;18.20;91.70
5055;DHT22;13829;48.990;8.346;2023-03-19T11:55:41;18.00;92.30
5055;DHT22;13829;48.990;8.346;2023-03-19T11:58:40;17.90;92.50
5055;DHT22;13829;48.990;8.346;2023-03-19T12:01:37;17.70;91.80
5055;DHT22;13829;48.990;8.346;2023-03-19T12:04:35;17.80;93.20
5055;DHT22;13829;48.990;8.346;2023-03-19T12:07:20;17.90;93.00
5055;DHT22;13829;48.990;8.346;2023-03-19T12:10:02;17.90;92.20
5055;DHT22;13829;48.990;8.346;2023-03-19T12:12:51;17.90;92.10
5055;DHT22;13829;48.990;8.346;2023-03-19T12:15:27;17.80;92.10
5055;DHT22;13829;48.990;8.346;2023-03-19T12:18:08;17.80;91.40
5055;DHT22;13829;48.990;8.346;2023-03-19T12:20:54;17.60;91.70
5055;DHT22;13829;48.990;8.346;2023-03-19T12:23:38;17.50;91.80
5055;DHT22;13829;48.990;8.346;2023-03-19T12:26:14;17.50;92.10
5055;DHT22;13829;48.990;8.346;2023-03-19T12:28:53;17.60;92.80
5055;DHT22;13829;48.990;8.346;2023-03-19T12:31:36;17.70;92.40
5055;DHT22;13829;48.990;8.346;2023-03-19T12:34:22;17.60;92.30
5055;DHT22;13829;48.990;8.346;2023-03-19T12:37:02;17.50;92.30
5055;DHT22;13829;48.990;8.346;2023-03-19T12:39:41;17.50;92.60
5055;DHT22;13829;48.990;8.346;2023-03-19T12:42:17;17.20;92.50
5055;DHT22;13829;48.990;8.346;2023-03-19T12:44:49;17.10;92.20
5055;DHT22;13829;48.990;8.346;2023-03-19T12:47:25;17.10;92.40
5055;DHT22;13829;48.990;8.346;2023-03-19T12:50:01;17.00;92.10
5055;DHT22;13829;48.990;8.346;2023-03-19T12:52:33;17.00;92.40
5055;DHT22;13829;48.990;8.346;2023-03-19T12:55:07;17.20;93.20
5055;DHT22;13829;48.990;8.346;2023-03-19T12:57:45;17.10;92.30
5055;DHT22;13829;48.990;8.346;2023-03-19T13:00:18;17.20;91.90
5055;DHT22;13829;48.990;8.346;2023-03-19T13:02:54;17.10;92.00
5055;DHT22;13829;48.990;8.346;2023-03-19T13:05:31;16.80;92.50
5055;DHT22;13829;48.990;8.346;2023-03-19T13:08:05;16.60;92.30
5055;DHT22;13829;48.990;8.346;2023-03-19T13:10:41;16.70;93.10
5055;DHT22;13829;48.990;8.346;2023-03-19T13:13:21;16.90;93.50
5055;DHT22;13829;48.990;8.346;2023-03-19T13:16:01;16.70;93.10
5055;DHT22;13829;48.990;8.346;2023-03-19T13:18:39;16.80;93.40
5055;DHT22;13829;48.990;8.346;2023-03-19T13:21:20;16.90;93.60
5055;DHT22;13829;48.990;8.346;2023-03-19T13:23:57;16.90;94.00
5055;DHT22;13829;48.990;8.346;2023-03-19T13:26:29;16.80;94.10
5055;DHT22;13829;48.990;8.346;2023-03-19T13:29:00;16.80;93.90
5055;DHT22;13829;48.990;8.346;2023-03-19T13:31:33;16.70;94.40
5055;DHT22;13829;48.990;8.346;2023-03-19T13:34:05;16.70;94.90
5055;DHT22;13829;48.990;8.346;2023-03-19T13:36:40;16.70;94.60
5055;DHT22;13829;48.990;8.346;2023-03-19T13:39:12;16.80;94.80
5055;DHT22;13829;48.990;8.346;2023-03-19T13:41:51;16.80;94.80
5055;DHT22;13829;48.990;8.346;2023-03-19T13:44:31;16.90;95.10
5055;DHT22;13829;48.990;8.346;2023-03-19T13:47:00;16.90;94.70
5055;DHT22;13829;48.990;8.346;2023-03-19T13:49:33;16.80;94.80
5055;DHT22;13829;48.990;8.346;2023-03-19T13:55:32;16.80;95.40
5055;DHT22;13829;48.990;8.346;2023-03-19T13:58:19;16.80;95.20
5055;DHT22;13829;48.990;8.346;2023-03-19T14:01:09;16.80;95.40
5055;DHT22;13829;48.990;8.346;2023-03-19T14:03:39;16.70;95.50
5055;DHT22;13829;48.990;8.346;2023-03-19T14:06:33;16.60;95.90
5055;DHT22;13829;48.990;8.346;2023-03-19T14:09:05;16.60;96.20
5055;DHT22;13829;48.990;8.346;2023-03-19T14:11:53;16.90;96.70
5055;DHT22;13829;48.990;8.346;2023-03-19T14:14:21;16.90;95.90
5055;DHT22;13829;48.990;8.346;2023-03-19T14:16:52;17.00;96.30
5055;DHT22;13829;48.990;8.346;2023-03-19T14:19:19;16.90;95.90
5055;DHT22;13829;48.990;8.346;2023-03-19T14:22:08;16.80;95.90
5055;DHT22;13829;48.990;8.346;2023-03-19T14:24:54;16.80;96.00
5055;DHT22;13829;48.990;8.346;2023-03-19T14:27:30;16.70;96.10
5055;DHT22;13829;48.990;8.346;2023-03-19T14:30:01;16.70;97.00
5055;DHT22;13829;48.990;8.346;2023-03-19T14:32:37;16.70;97.10
5055;DHT22;13829;48.990;8.346;2023-03-19T14:35:13;16.70;97.40
5055;DHT22;13829;48.990;8.346;2023-03-19T14:37:48;16.70;96.80
5055;DHT22;13829;48.990;8.346;2023-03-19T14:40:20;16.60;97.30
5055;DHT22;13829;48.990;8.346;2023-03-19T14:42:57;16.50;97.40
5055;DHT22;13829;48.990;8.346;2023-03-19T14:48:54;16.40;97.40
5055;DHT22;13829;48.990;8.346;2023-03-19T14:51:56;16.40;97.80
5055;DHT22;13829;48.990;8.346;2023-03-19T14:54:32;16.50;98.10
5055;DHT22;13829;48.990;8.346;2023-03-19T14:57:07;16.60;98.80
5055;DHT22;13829;48.990;8.346;2023-03-19T14:59:41;16.50;97.70
5055;DHT22;13829;48.990;8.346;2023-03-19T15:02:19;16.60;97.50
5055;DHT22;13829;48.990;8.346;2023-03-19T15:04:53;16.60;97.60
5055;DHT22;13829;48.990;8.346;2023-03-19T15:07:27;16.70;98.10
5055;DHT22;13829;48.990;8.346;2023-03-19T15:10:00;16.80;98.20
5055;DHT22;13829;48.990;8.346;2023-03-19T15:12:52;17.00;98.70
5055;DHT22;13829;48.990;8.346;2023-03-19T15:15:36;17.30;98.30
5055;DHT22;13829;48.990;8.346;2023-03-19T15:18:10;17.40;97.50
5055;DHT22;13829;48.990;8.346;2023-03-19T15:20:42;17.50;96.90
5055;DHT22;13829;48.990;8.346;2023-03-19T15:23:15;17.50;97.00
5055;DHT22;13829;48.990;8.346;2023-03-19T15:25:46;17.60;97.00
5055;DHT22;13829;48.990;8.346;2023-03-19T15:28:16;17.70;97.00
5055;DHT22;13829;48.990;8.346;2023-03-19T15:30:44;17.70;97.30
5055;DHT22;13829;48.990;8.346;2023-03-19T15:33:21;17.70;97.30
5055;DHT22;13829;48.990;8.346;2023-03-19T15:35:52;17.80;96.80
5055;DHT22;13829;48.990;8.346;2023-03-19T15:38:25;17.60;96.70
5055;DHT22;13829;48.990;8.346;2023-03-19T15:40:58;17.50;97.20
5055;DHT22;13829;48.990;8.346;2023-03-19T15:43:27;17.30;97.60
5055;DHT22;13829;48.990;8.346;2023-03-19T15:45:54;17.20;97.90
5055;DHT22;13829;48.990;8.346;2023-03-19T15:48:24;17.10;98.30
5055;DHT22;13829;48.990;8.346;2023-03-19T15:51:00;16.90;98.10
5055;DHT22;13829;48.990;8.346;2023-03-19T15:53:33;16.70;97.90
5055;DHT22;13829;48.990;8.346;2023-03-19T15:56:04;16.50;97.90
5055;DHT22;13829;48.990;8.346;2023-03-19T15:58:37;16.30;97.90
5055;DHT22;13829;48.990;8.346;2023-03-19T16:01:08;16.20;98.40
5055;DHT22;13829;48.990;8.346;2023-03-19T16:03:39;16.20;99.10
5055;DHT22;13829;48.990;8.346;2023-03-19T16:06:13;16.00;99.90
5055;DHT22;13829;48.990;8.346;2023-03-19T16:08:46;15.80;99.90
5055;DHT22;13829;48.990;8.346;2023-03-19T16:11:26;15.70;99.90
5055;DHT22;13829;48.990;8.346;2023-03-19T16:13:56;15.60;99.90
5055;DHT22;13829;48.990;8.346;2023-03-19T16:16:27;15.40;99.90
5055;DHT22;13829;48.990;8.346;2023-03-19T16:18:57;15.30;99.90
5055;DHT22;13829;48.990;8.346;2023-03-19T16:21:28;15.20;99.90